createdAt,value
2023-03-27T00:00:04.640Z,7.23
2023-03-27T00:01:04.353Z,7.17
2023-03-27T00:02:04.383Z,7.13
2023-03-27T00:03:04.469Z,7.12
2023-03-27T00:04:04.393Z,7.07
2023-03-27T00:05:04.581Z,7.07
2023-03-27T00:06:04.376Z,7.05
2023-03-27T00:07:04.548Z,7.04
2023-03-27T00:08:04.554Z,7.07
2023-03-27T00:09:04.501Z,7.08
2023-03-27T00:10:05.252Z,7.08
2023-03-27T00:11:04.499Z,7.08
2023-03-27T00:12:04.376Z,7.07
2023-03-27T00:13:04.376Z,7.05
2023-03-27T00:14:04.452Z,7.02
2023-03-27T00:15:04.438Z,6.98
2023-03-27T00:16:05.090Z,7.02
2023-03-27T00:17:04.413Z,7.01
2023-03-27T00:18:04.477Z,7.02
2023-03-27T00:19:04.372Z,7.02
2023-03-27T00:20:03.677Z,7.05
2023-03-27T00:21:03.644Z,7.05
2023-03-27T00:22:03.650Z,7.02
2023-03-27T00:23:04.346Z,7.01
2023-03-27T00:24:04.299Z,7.04
2023-03-27T00:25:03.643Z,7.04
2023-03-27T00:26:04.326Z,7.02
2023-03-27T00:27:04.277Z,7.04
2023-03-27T00:28:04.315Z,7.08
2023-03-27T00:29:04.252Z,7.08
2023-03-27T00:30:03.652Z,7.04
2023-03-27T00:31:04.253Z,6.97
2023-03-27T00:32:04.227Z,6.94
2023-03-27T00:33:04.284Z,6.90
2023-03-27T00:34:04.156Z,6.90
2023-03-27T00:35:04.186Z,6.87
2023-03-27T00:36:04.227Z,6.86
2023-03-27T00:37:04.142Z,6.83
2023-03-27T00:38:04.142Z,6.83
2023-03-27T00:39:04.100Z,6.83
2023-03-27T00:40:04.106Z,6.80
2023-03-27T00:41:04.120Z,6.83
2023-03-27T00:42:04.080Z,6.80
2023-03-27T00:43:04.059Z,6.80
2023-03-27T00:44:04.064Z,6.77
2023-03-27T00:45:04.787Z,6.76
2023-03-27T00:46:04.069Z,6.79
2023-03-27T00:47:04.025Z,6.76
2023-03-27T00:48:04.035Z,6.79
2023-03-27T00:49:03.982Z,6.72
2023-03-27T00:50:03.968Z,6.71
2023-03-27T00:51:04.642Z,6.72
2023-03-27T00:52:04.620Z,6.68
2023-03-27T00:53:03.931Z,6.62
2023-03-27T00:54:03.183Z,6.63
2023-03-27T00:55:03.890Z,6.66
2023-03-27T00:56:04.574Z,6.66
2023-03-27T00:57:03.230Z,6.66
2023-03-27T00:58:03.859Z,6.69
2023-03-27T00:59:03.850Z,6.66
2023-03-27T01:00:03.232Z,6.65
2023-03-27T01:01:03.853Z,6.65
2023-03-27T01:02:03.418Z,6.61
2023-03-27T01:03:03.953Z,6.63
2023-03-27T01:04:03.797Z,6.61
2023-03-27T01:05:03.425Z,6.61
2023-03-27T01:06:03.761Z,6.59
2023-03-27T01:07:03.754Z,6.61
2023-03-27T01:08:03.407Z,6.61
2023-03-27T01:09:03.704Z,6.61
2023-03-27T01:10:03.137Z,6.58
2023-03-27T01:11:03.685Z,6.54
2023-03-27T01:12:03.715Z,6.54
2023-03-27T01:13:03.227Z,6.56
2023-03-27T01:14:03.690Z,6.56
2023-03-27T01:15:04.322Z,6.53
2023-03-27T01:16:03.348Z,6.50
2023-03-27T01:17:03.604Z,6.48
2023-03-27T01:18:03.442Z,6.46
2023-03-27T01:19:03.587Z,6.43
2023-03-27T01:20:04.309Z,6.48
2023-03-27T01:21:03.429Z,6.46
2023-03-27T01:22:03.549Z,6.44
2023-03-27T01:23:04.223Z,6.43
2023-03-27T01:24:03.437Z,6.44
2023-03-27T01:25:03.489Z,6.44
2023-03-27T01:26:03.444Z,6.36
2023-03-27T01:27:04.172Z,6.33
2023-03-27T01:28:03.466Z,6.35
2023-03-27T01:29:02.712Z,6.30
2023-03-27T01:30:04.162Z,6.35
2023-03-27T01:31:04.157Z,6.32
2023-03-27T01:32:03.423Z,6.30
2023-03-27T01:33:04.156Z,6.32
2023-03-27T01:34:04.123Z,6.32
2023-03-27T01:35:03.724Z,6.30
2023-03-27T01:36:04.096Z,6.28
2023-03-27T01:37:04.069Z,6.25
2023-03-27T01:38:04.054Z,6.28
2023-03-27T01:39:04.042Z,6.28
2023-03-27T01:40:04.035Z,6.22
2023-03-27T01:41:04.000Z,6.21
2023-03-27T01:42:03.268Z,6.19
2023-03-27T01:43:03.993Z,6.19
2023-03-27T01:44:03.970Z,6.18
2023-03-27T01:45:03.236Z,6.21
2023-03-27T01:46:03.940Z,6.19
2023-03-27T01:47:03.241Z,6.18
2023-03-27T01:48:02.523Z,6.19
2023-03-27T01:49:03.190Z,6.18
2023-03-27T01:50:03.142Z,6.14
2023-03-27T01:51:03.830Z,6.14
2023-03-27T01:52:03.136Z,6.18
2023-03-27T01:53:02.395Z,6.13
2023-03-27T01:54:03.114Z,6.16
2023-03-27T01:55:03.814Z,6.11
2023-03-27T01:56:03.075Z,6.09
2023-03-27T01:57:03.124Z,6.09
2023-03-27T01:58:03.738Z,6.04
2023-03-27T01:59:03.041Z,6.03
2023-03-27T02:00:17.930Z,5.98
2023-03-27T02:01:05.001Z,5.98
2023-03-27T02:02:03.020Z,5.96
2023-03-27T02:03:03.027Z,6.03
2023-03-27T02:04:02.972Z,6.01
2023-03-27T02:05:02.995Z,6.01
2023-03-27T02:06:02.924Z,6.03
2023-03-27T02:07:02.927Z,6.01
2023-03-27T02:08:02.924Z,5.98
2023-03-27T02:09:02.471Z,5.93
2023-03-27T02:10:03.572Z,5.93
2023-03-27T02:11:02.858Z,5.91
2023-03-27T02:12:02.873Z,5.92
2023-03-27T02:13:02.879Z,5.88
2023-03-27T02:14:02.844Z,5.89
2023-03-27T02:15:23.848Z,5.89
2023-03-27T02:16:03.859Z,5.89
2023-03-27T02:17:02.802Z,5.91
2023-03-27T02:18:02.823Z,5.88
2023-03-27T02:19:02.778Z,5.85
2023-03-27T02:23:32.600Z,5.89
2023-03-27T02:24:31.398Z,5.85
2023-03-27T02:25:31.153Z,5.86
2023-03-27T02:26:32.068Z,5.83
2023-03-27T02:27:31.357Z,5.83
2023-03-27T02:28:32.062Z,5.83
2023-03-27T02:29:31.368Z,5.85
2023-03-27T02:30:32.049Z,5.86
2023-03-27T02:31:33.996Z,5.83
2023-03-27T02:32:32.059Z,5.78
2023-03-27T02:33:31.321Z,5.75
2023-03-27T02:34:32.012Z,5.71
2023-03-27T02:35:31.269Z,5.70
2023-03-27T02:36:31.218Z,5.73
2023-03-27T02:37:32.266Z,5.74
2023-03-27T02:38:31.209Z,5.73
2023-03-27T02:39:31.198Z,5.71
2023-03-27T02:40:31.198Z,5.70
2023-03-27T02:41:31.151Z,5.75
2023-03-27T02:42:31.162Z,5.77
2023-03-27T02:43:31.169Z,5.71
2023-03-27T02:44:31.804Z,5.70
2023-03-27T02:45:31.141Z,5.68
2023-03-27T02:46:31.080Z,5.66
2023-03-27T02:47:31.143Z,5.71
2023-03-27T02:48:30.495Z,5.73
2023-03-27T02:49:31.060Z,5.71
2023-03-27T02:50:31.055Z,5.73
2023-03-27T02:51:31.009Z,5.71
2023-03-27T02:52:31.256Z,5.67
2023-03-27T02:53:31.689Z,5.64
2023-03-27T02:54:31.006Z,5.70
2023-03-27T02:55:30.981Z,5.64
2023-03-27T02:56:30.514Z,5.66
2023-03-27T02:57:30.963Z,5.63
2023-03-27T02:58:30.985Z,5.60
2023-03-27T02:59:31.587Z,5.59
2023-03-27T03:00:30.929Z,5.59
2023-03-27T03:01:30.910Z,5.59
2023-03-27T03:02:30.962Z,5.56
2023-03-27T03:03:30.923Z,5.57
2023-03-27T03:04:30.422Z,5.60
2023-03-27T03:05:30.853Z,5.59
2023-03-27T03:06:30.833Z,5.59
2023-03-27T03:07:30.823Z,5.53
2023-03-27T03:08:30.707Z,5.53
2023-03-27T03:09:31.544Z,5.52
2023-03-27T03:10:30.785Z,5.49
2023-03-27T03:11:31.453Z,5.45
2023-03-27T03:12:30.526Z,5.41
2023-03-27T03:13:31.424Z,5.40
2023-03-27T03:14:30.733Z,5.37
2023-03-27T03:15:30.189Z,5.31
2023-03-27T03:16:31.422Z,5.28
2023-03-27T03:17:30.714Z,5.27
2023-03-27T03:18:30.674Z,5.23
2023-03-27T03:19:30.663Z,5.19
2023-03-27T03:20:30.531Z,5.16
2023-03-27T03:21:31.332Z,5.14
2023-03-27T03:22:30.624Z,5.10
2023-03-27T03:23:30.610Z,5.07
2023-03-27T03:24:30.600Z,5.02
2023-03-27T03:25:30.583Z,5.01
2023-03-27T03:26:30.566Z,4.98
2023-03-27T03:27:30.553Z,4.95
2023-03-27T03:28:29.811Z,4.92
2023-03-27T03:29:30.537Z,4.84
2023-03-27T03:30:30.560Z,4.83
2023-03-27T03:31:29.805Z,4.79
2023-03-27T03:32:30.616Z,4.80
2023-03-27T03:33:30.472Z,4.75
2023-03-27T03:34:30.490Z,4.72
2023-03-27T03:35:30.494Z,4.67
2023-03-27T03:36:30.433Z,4.62
2023-03-27T03:37:31.162Z,4.59
2023-03-27T03:38:30.415Z,4.58
2023-03-27T03:39:31.166Z,4.54
2023-03-27T03:40:30.382Z,4.51
2023-03-27T03:41:30.372Z,4.44
2023-03-27T03:42:30.594Z,4.46
2023-03-27T03:43:30.385Z,4.43
2023-03-27T03:44:30.346Z,4.46
2023-03-27T03:45:30.315Z,4.42
2023-03-27T03:46:30.332Z,4.39
2023-03-27T03:47:30.284Z,4.34
2023-03-27T03:48:30.493Z,4.32
2023-03-27T03:49:30.266Z,4.34
2023-03-27T03:50:30.265Z,4.26
2023-03-27T03:51:30.233Z,4.26
2023-03-27T03:52:30.207Z,4.24
2023-03-27T03:53:30.222Z,4.21
2023-03-27T03:54:30.192Z,4.18
2023-03-27T03:55:30.171Z,4.15
2023-03-27T03:56:30.187Z,4.12
2023-03-27T03:57:30.116Z,4.12
2023-03-27T03:58:34.676Z,4.16
2023-03-27T03:59:31.132Z,4.12
2023-03-27T04:00:30.118Z,4.08
2023-03-27T04:01:30.126Z,4.01
2023-03-27T04:02:30.205Z,3.96
2023-03-27T04:03:30.134Z,3.97
2023-03-27T04:04:30.090Z,3.94
2023-03-27T04:05:30.044Z,3.92
2023-03-27T04:06:30.044Z,3.89
2023-03-27T04:07:29.985Z,3.86
2023-03-27T04:08:29.997Z,3.88
2023-03-27T04:09:30.652Z,3.86
2023-03-27T04:10:29.965Z,3.83
2023-03-27T04:11:30.632Z,3.83
2023-03-27T04:12:29.915Z,3.80
2023-03-27T04:13:29.952Z,3.79
2023-03-27T04:14:29.906Z,3.76
2023-03-27T04:15:29.897Z,3.75
2023-03-27T04:16:30.704Z,3.71
2023-03-27T04:17:29.926Z,3.70
2023-03-27T04:18:29.898Z,3.71
2023-03-27T04:19:29.854Z,3.71
2023-03-27T04:20:29.833Z,3.67
2023-03-27T04:21:29.856Z,3.70
2023-03-27T04:22:29.590Z,3.68
2023-03-27T04:23:29.570Z,3.62
2023-03-27T04:24:29.773Z,3.58
2023-03-27T04:25:29.781Z,3.52
2023-03-27T04:26:29.936Z,3.46
2023-03-27T04:27:29.776Z,3.46
2023-03-27T04:28:29.590Z,3.46
2023-03-27T04:29:29.706Z,3.43
2023-03-27T04:30:29.696Z,3.40
2023-03-27T04:31:29.709Z,3.42
2023-03-27T04:32:29.683Z,3.42
2023-03-27T04:33:30.596Z,3.40
2023-03-27T04:34:29.666Z,3.43
2023-03-27T04:35:29.141Z,3.36
2023-03-27T04:36:31.217Z,3.31
2023-03-27T04:37:29.601Z,3.30
2023-03-27T04:38:29.818Z,3.31
2023-03-27T04:39:29.625Z,3.25
2023-03-27T04:40:29.592Z,3.25
2023-03-27T04:41:30.228Z,3.23
2023-03-27T04:42:29.311Z,3.21
2023-03-27T04:43:29.527Z,3.16
2023-03-27T04:44:30.193Z,3.10
2023-03-27T04:45:29.500Z,3.06
2023-03-27T04:46:29.531Z,3.05
2023-03-27T04:47:29.509Z,3.02
2023-03-27T04:48:29.432Z,3.03
2023-03-27T04:49:29.455Z,3.03
2023-03-27T04:50:29.432Z,3.02
2023-03-27T04:51:29.424Z,2.98
2023-03-27T04:52:30.126Z,3.03
2023-03-27T04:53:30.214Z,3.02
2023-03-27T04:54:30.105Z,3.03
2023-03-27T04:55:29.377Z,3.02
2023-03-27T04:56:29.352Z,3.05
2023-03-27T04:57:29.348Z,3.06
2023-03-27T04:58:29.388Z,3.03
2023-03-27T04:59:29.357Z,2.95
2023-03-27T05:00:29.976Z,2.95
2023-03-27T05:01:29.363Z,2.92
2023-03-27T05:02:29.322Z,2.95
2023-03-27T05:03:29.308Z,2.95
2023-03-27T05:04:29.260Z,2.91
2023-03-27T05:05:29.242Z,2.85
2023-03-27T05:06:29.218Z,2.81
2023-03-27T05:07:29.222Z,2.76
2023-03-27T05:08:29.176Z,2.73
2023-03-27T05:09:29.189Z,2.70
2023-03-27T05:10:29.183Z,2.63
2023-03-27T05:11:29.366Z,2.63
2023-03-27T05:12:29.176Z,2.59
2023-03-27T05:13:29.118Z,2.61
2023-03-27T05:14:29.108Z,2.59
2023-03-27T05:15:29.089Z,2.63
2023-03-27T05:16:29.178Z,2.64
2023-03-27T05:17:29.097Z,2.63
2023-03-27T05:18:29.028Z,2.63
2023-03-27T05:19:29.072Z,2.69
2023-03-27T05:20:29.038Z,2.73
2023-03-27T05:21:29.016Z,2.77
2023-03-27T05:22:29.257Z,2.81
2023-03-27T05:23:28.971Z,2.84
2023-03-27T05:24:28.971Z,2.87
2023-03-27T05:25:28.989Z,2.87
2023-03-27T05:26:29.628Z,2.84
2023-03-27T05:27:28.926Z,2.79
2023-03-27T05:28:28.897Z,2.76
2023-03-27T05:29:28.939Z,2.73
2023-03-27T05:30:28.958Z,2.67
2023-03-27T05:31:28.901Z,2.67
2023-03-27T05:32:28.671Z,2.63
2023-03-27T05:33:28.821Z,2.63
2023-03-27T05:34:28.658Z,2.59
2023-03-27T05:35:28.874Z,2.56
2023-03-27T05:36:28.808Z,2.53
2023-03-27T05:37:28.814Z,2.53
2023-03-27T05:38:28.756Z,2.53
2023-03-27T05:39:28.643Z,2.53
2023-03-27T05:40:28.653Z,2.55
2023-03-27T05:41:28.740Z,2.63
2023-03-27T05:42:28.738Z,2.66
2023-03-27T05:43:28.701Z,2.66
2023-03-27T05:44:28.932Z,2.67
2023-03-27T05:45:28.732Z,2.73
2023-03-27T05:46:28.744Z,2.81
2023-03-27T05:47:28.683Z,2.84
2023-03-27T05:48:27.929Z,2.87
2023-03-27T05:49:28.644Z,2.89
2023-03-27T05:50:28.634Z,2.95
2023-03-27T05:51:28.609Z,2.98
2023-03-27T05:52:28.932Z,3.02
2023-03-27T05:53:29.263Z,3.05
2023-03-27T05:54:28.571Z,3.07
2023-03-27T05:55:28.731Z,3.10
2023-03-27T05:56:27.914Z,3.09
2023-03-27T05:57:28.552Z,3.12
2023-03-27T05:58:28.521Z,3.15
2023-03-27T05:59:28.479Z,3.21
2023-03-27T06:00:28.621Z,3.27
2023-03-27T06:01:28.471Z,3.31
2023-03-27T06:02:28.506Z,3.30
2023-03-27T06:03:28.583Z,3.34
2023-03-27T06:04:28.530Z,3.36
2023-03-27T06:05:28.419Z,3.34
2023-03-27T06:06:29.151Z,3.31
2023-03-27T06:07:28.389Z,3.30
2023-03-27T06:08:28.378Z,3.24
2023-03-27T06:09:28.354Z,3.21
2023-03-27T06:10:28.359Z,3.13
2023-03-27T06:11:28.352Z,3.10
2023-03-27T06:12:28.337Z,3.12
2023-03-27T06:13:28.314Z,3.15
2023-03-27T06:14:28.282Z,3.23
2023-03-27T06:15:28.417Z,3.30
2023-03-27T06:16:28.335Z,3.34
2023-03-27T06:17:29.025Z,3.43
2023-03-27T06:18:28.283Z,3.46
2023-03-27T06:19:28.215Z,3.44
2023-03-27T06:20:28.229Z,3.46
2023-03-27T06:21:28.237Z,3.50
2023-03-27T06:22:28.245Z,3.57
2023-03-27T06:23:28.861Z,3.62
2023-03-27T06:24:28.174Z,3.70
2023-03-27T06:25:28.842Z,3.78
2023-03-27T06:26:28.840Z,3.86
2023-03-27T06:27:28.148Z,3.86
2023-03-27T06:28:28.165Z,3.94
2023-03-27T06:29:28.083Z,4.01
2023-03-27T06:30:28.107Z,4.10
2023-03-27T06:31:28.124Z,4.19
2023-03-27T06:32:28.099Z,4.24
2023-03-27T06:33:28.063Z,4.34
2023-03-27T06:34:28.017Z,4.34
2023-03-27T06:35:28.020Z,4.39
2023-03-27T06:36:27.744Z,4.43
2023-03-27T06:37:28.005Z,4.54
2023-03-27T06:38:27.991Z,4.65
2023-03-27T06:39:28.710Z,4.70
2023-03-27T06:40:28.224Z,4.73
2023-03-27T06:41:27.954Z,4.77
2023-03-27T06:42:27.936Z,4.84
2023-03-27T06:43:27.682Z,4.89
2023-03-27T06:44:27.687Z,4.89
2023-03-27T06:45:27.708Z,4.89
2023-03-27T06:46:42.786Z,4.94
2023-03-27T06:47:28.911Z,5.02
2023-03-27T06:48:27.890Z,5.09
2023-03-27T06:49:27.823Z,5.12
2023-03-27T06:50:27.849Z,5.17
2023-03-27T06:51:27.291Z,5.17
2023-03-27T06:52:27.347Z,5.17
2023-03-27T06:53:28.834Z,5.20
2023-03-27T06:54:27.756Z,5.25
2023-03-27T06:55:27.088Z,5.25
2023-03-27T06:56:28.424Z,5.27
2023-03-27T06:57:27.739Z,5.28
2023-03-27T06:58:27.582Z,5.27
2023-03-27T06:59:27.173Z,5.23
2023-03-27T07:00:27.755Z,5.17
2023-03-27T07:01:27.640Z,5.13
2023-03-27T07:02:27.693Z,4.99
2023-03-27T07:03:27.673Z,5.07
2023-03-27T07:04:28.374Z,5.09
2023-03-27T07:05:28.350Z,5.13
2023-03-27T07:06:27.837Z,5.17
2023-03-27T07:07:27.585Z,5.30
2023-03-27T07:08:28.311Z,5.34
2023-03-27T07:09:28.306Z,5.32
2023-03-27T07:10:28.285Z,5.38
2023-03-27T07:11:30.646Z,5.48
2023-03-27T07:12:28.275Z,5.48
2023-03-27T07:13:28.231Z,5.52
2023-03-27T07:14:28.239Z,5.52
2023-03-27T07:15:28.204Z,5.52
2023-03-27T07:16:27.652Z,5.63
2023-03-27T07:17:34.885Z,5.68
2023-03-27T07:18:28.461Z,5.77
2023-03-27T07:19:27.413Z,5.77
2023-03-27T07:20:27.470Z,5.89
2023-03-27T07:21:27.400Z,5.82
2023-03-27T07:22:27.395Z,5.93
2023-03-27T07:23:27.370Z,6.01
2023-03-27T07:24:27.357Z,6.10
2023-03-27T07:25:27.322Z,6.16
2023-03-27T07:26:27.344Z,6.90
2023-03-27T07:27:27.316Z,7.74
2023-03-27T07:28:27.354Z,8.10
2023-03-27T07:29:27.306Z,8.10
2023-03-27T07:30:27.244Z,7.74
2023-03-27T07:31:40.328Z,7.50
2023-03-27T07:32:36.680Z,7.37
2023-03-27T07:33:28.333Z,7.05
2023-03-27T07:34:27.212Z,7.74
2023-03-27T07:35:27.207Z,7.77
2023-03-27T07:36:27.878Z,8.68
2023-03-27T07:37:27.193Z,9.60
2023-03-27T07:38:27.171Z,9.31
2023-03-27T07:39:27.173Z,9.78
2023-03-27T07:40:38.838Z,9.71
2023-03-27T07:41:28.130Z,9.78
2023-03-27T07:42:27.108Z,9.73
2023-03-27T07:43:27.109Z,9.04
2023-03-27T07:44:27.129Z,8.22
2023-03-27T07:45:27.073Z,7.97
2023-03-27T07:46:27.078Z,7.69
2023-03-27T07:47:27.075Z,7.40
2023-03-27T07:48:27.032Z,7.20
2023-03-27T07:49:39.287Z,7.01
2023-03-27T07:50:28.696Z,6.99
2023-03-27T07:51:26.988Z,6.91
2023-03-27T07:52:26.762Z,7.07
2023-03-27T07:53:33.345Z,6.99
2023-03-27T07:54:27.950Z,6.83
2023-03-27T07:55:26.939Z,6.80
2023-03-27T07:56:26.931Z,6.89
2023-03-27T07:57:27.010Z,7.15
2023-03-27T07:58:27.131Z,7.56
2023-03-27T07:59:26.331Z,7.40
2023-03-27T08:00:27.554Z,7.13
2023-03-27T08:01:26.853Z,7.08
2023-03-27T08:02:26.749Z,7.22
2023-03-27T08:03:26.840Z,7.81
2023-03-27T08:04:26.874Z,8.47
2023-03-27T08:05:26.772Z,9.28
2023-03-27T08:06:26.822Z,9.91
2023-03-27T08:07:26.034Z,11.09
2023-03-27T08:08:26.759Z,10.30
2023-03-27T08:09:26.783Z,9.61
2023-03-27T08:10:26.718Z,8.94
2023-03-27T08:11:30.582Z,8.65
2023-03-27T08:12:27.622Z,8.28
2023-03-27T08:13:26.694Z,7.90
2023-03-27T08:14:26.672Z,7.13
2023-03-27T08:15:26.645Z,6.77
2023-03-27T08:16:26.675Z,6.65
2023-03-27T08:17:27.504Z,6.62
2023-03-27T08:18:26.646Z,6.61
2023-03-27T08:19:26.017Z,7.29
2023-03-27T08:20:26.558Z,7.35
2023-03-27T08:21:26.584Z,7.19
2023-03-27T08:22:27.252Z,7.23
2023-03-27T08:23:26.548Z,6.99
2023-03-27T08:24:26.534Z,7.45
2023-03-27T08:25:27.209Z,7.37
2023-03-27T08:26:26.550Z,8.17
2023-03-27T08:27:25.753Z,8.11
2023-03-27T08:28:26.476Z,8.93
2023-03-27T08:29:26.461Z,8.72
2023-03-27T08:30:26.440Z,8.57
2023-03-27T08:31:26.501Z,8.78
2023-03-27T08:32:26.442Z,8.51
2023-03-27T08:33:26.416Z,8.12
2023-03-27T08:34:26.394Z,8.18
2023-03-27T08:35:25.716Z,8.30
2023-03-27T08:36:26.371Z,8.10
2023-03-27T08:37:26.365Z,7.97
2023-03-27T08:38:27.134Z,7.52
2023-03-27T08:39:26.315Z,7.17
2023-03-27T08:40:26.412Z,7.01
2023-03-27T08:41:26.302Z,6.98
2023-03-27T08:42:26.276Z,6.99
2023-03-27T08:43:25.543Z,6.97
2023-03-27T08:44:26.251Z,7.09
2023-03-27T08:45:26.940Z,7.42
2023-03-27T08:46:26.323Z,7.92
2023-03-27T08:47:26.236Z,9.40
2023-03-27T08:48:26.195Z,9.01
2023-03-27T08:49:26.265Z,8.36
2023-03-27T08:50:26.159Z,8.71
2023-03-27T08:51:25.442Z,8.86
2023-03-27T08:52:26.152Z,9.68
2023-03-27T08:53:29.018Z,10.76
2023-03-27T08:54:26.154Z,11.85
2023-03-27T08:55:26.118Z,12.82
2023-03-27T08:56:26.085Z,11.53
2023-03-27T08:57:25.805Z,11.25
2023-03-27T08:58:25.785Z,12.67
2023-03-27T08:59:25.423Z,13.14
2023-03-27T09:00:26.017Z,13.37
2023-03-27T09:01:26.457Z,13.52
2023-03-27T09:02:25.850Z,14.38
2023-03-27T09:03:26.108Z,15.20
2023-03-27T09:04:25.984Z,15.06
2023-03-27T09:05:25.940Z,15.27
2023-03-27T09:06:25.968Z,15.81
2023-03-27T09:07:25.196Z,15.64
2023-03-27T09:08:25.283Z,16.07
2023-03-27T09:09:25.916Z,15.68
2023-03-27T09:10:25.874Z,15.51
2023-03-27T09:11:25.375Z,16.12
2023-03-27T09:12:26.579Z,16.98
2023-03-27T09:13:25.861Z,16.48
2023-03-27T09:14:25.954Z,16.34
2023-03-27T09:15:25.097Z,16.74
2023-03-27T09:16:25.866Z,16.20
2023-03-27T09:17:25.873Z,16.35
2023-03-27T09:18:25.565Z,15.74
2023-03-27T09:19:25.827Z,14.54
2023-03-27T09:20:25.770Z,13.77
2023-03-27T09:21:25.741Z,14.24
2023-03-27T09:22:26.412Z,12.97
2023-03-27T09:23:26.449Z,12.13
2023-03-27T09:24:26.449Z,11.53
2023-03-27T09:25:26.446Z,11.44
2023-03-27T09:26:26.424Z,11.41
2023-03-27T09:27:26.380Z,11.20
2023-03-27T09:28:26.365Z,10.83
2023-03-27T09:29:26.358Z,11.34
2023-03-27T09:30:25.648Z,12.06
2023-03-27T09:31:25.680Z,12.93
2023-03-27T09:32:26.355Z,12.93
2023-03-27T09:33:26.581Z,14.01
2023-03-27T09:34:25.559Z,15.56
2023-03-27T09:35:25.601Z,15.74
2023-03-27T09:36:25.518Z,15.28
2023-03-27T09:37:25.519Z,13.56
2023-03-27T09:38:25.500Z,12.11
2023-03-27T09:39:25.494Z,11.10
2023-03-27T09:40:26.149Z,10.03
2023-03-27T09:41:25.440Z,9.57
2023-03-27T09:42:25.461Z,9.20
2023-03-27T09:43:25.431Z,8.94
2023-03-27T09:44:25.559Z,8.76
2023-03-27T09:45:25.422Z,8.78
2023-03-27T09:46:25.393Z,8.63
2023-03-27T09:47:24.869Z,8.57
2023-03-27T09:48:25.367Z,8.51
2023-03-27T09:49:25.394Z,8.57
2023-03-27T09:50:27.109Z,8.65
2023-03-27T09:51:25.309Z,8.99
2023-03-27T09:52:25.309Z,9.63
2023-03-27T09:53:25.295Z,10.12
2023-03-27T09:54:25.306Z,10.83
2023-03-27T09:55:25.971Z,10.80
2023-03-27T09:56:25.226Z,10.37
2023-03-27T09:57:25.249Z,10.14
2023-03-27T09:58:25.228Z,9.89
2023-03-27T09:59:25.242Z,9.48
2023-03-27T10:00:25.214Z,9.31
2023-03-27T10:01:25.214Z,8.91
2023-03-27T10:02:25.206Z,8.55
2023-03-27T10:03:24.578Z,8.18
2023-03-27T10:04:24.840Z,7.96
2023-03-27T10:05:25.133Z,7.84
2023-03-27T10:06:25.100Z,7.78
2023-03-27T10:07:25.786Z,7.92
2023-03-27T10:08:26.758Z,8.15
2023-03-27T10:09:24.853Z,8.47
2023-03-27T10:10:24.854Z,8.78
2023-03-27T10:11:24.843Z,10.04
2023-03-27T10:12:25.028Z,10.98
2023-03-27T10:13:25.022Z,10.96
2023-03-27T10:14:25.025Z,11.57
2023-03-27T10:15:25.003Z,12.30
2023-03-27T10:16:25.759Z,13.30
2023-03-27T10:17:24.989Z,13.09
2023-03-27T10:18:24.860Z,12.77
2023-03-27T10:19:24.875Z,12.56
2023-03-27T10:20:24.916Z,11.93
2023-03-27T10:21:24.885Z,11.24
2023-03-27T10:22:24.150Z,10.70
2023-03-27T10:23:24.958Z,9.64
2023-03-27T10:24:24.874Z,9.20
2023-03-27T10:25:24.852Z,8.84
2023-03-27T10:26:24.116Z,8.60
2023-03-27T10:27:24.133Z,8.50
2023-03-27T10:28:24.808Z,8.37
2023-03-27T10:29:25.472Z,8.42
2023-03-27T10:30:24.827Z,8.51
2023-03-27T10:31:24.773Z,8.65
2023-03-27T10:32:25.506Z,8.84
2023-03-27T10:33:24.741Z,8.90
2023-03-27T10:34:25.390Z,8.72
2023-03-27T10:35:24.271Z,8.94
2023-03-27T10:36:24.703Z,9.38
2023-03-27T10:37:24.668Z,9.12
2023-03-27T10:38:24.694Z,9.02
2023-03-27T10:39:25.529Z,10.62
2023-03-27T10:40:25.349Z,11.70
2023-03-27T10:41:31.599Z,12.41
2023-03-27T10:42:25.595Z,12.09
2023-03-27T10:43:24.648Z,13.12
2023-03-27T10:44:24.590Z,13.12
2023-03-27T10:45:25.462Z,13.87
2023-03-27T10:46:24.595Z,14.42
2023-03-27T10:47:25.275Z,13.40
2023-03-27T10:48:24.522Z,13.65
2023-03-27T10:49:24.524Z,14.25
2023-03-27T10:50:24.508Z,14.74
2023-03-27T10:51:26.575Z,15.35
2023-03-27T10:52:25.517Z,14.75
2023-03-27T10:53:24.608Z,15.33
2023-03-27T10:54:24.521Z,14.98
2023-03-27T10:55:24.444Z,15.30
2023-03-27T10:56:24.435Z,15.20
2023-03-27T10:57:24.393Z,13.36
2023-03-27T10:58:24.395Z,12.34
2023-03-27T11:00:25.371Z,10.95
2023-03-27T11:01:24.394Z,10.58
2023-03-27T11:02:24.312Z,10.34
2023-03-27T11:03:24.344Z,10.04
2023-03-27T11:03:47.542Z,11.86
2023-03-27T11:04:24.365Z,10.06
2023-03-27T11:05:24.286Z,10.15
2023-03-27T11:06:24.406Z,9.94
2023-03-27T11:07:24.263Z,9.61
2023-03-27T11:08:24.252Z,9.30
2023-03-27T11:09:24.969Z,9.16
2023-03-27T11:10:24.247Z,9.02
2023-03-27T11:11:24.207Z,10.47
2023-03-27T11:12:24.170Z,11.85
2023-03-27T11:13:24.192Z,12.57
2023-03-27T11:14:24.169Z,12.06
2023-03-27T11:15:24.208Z,11.85
2023-03-27T11:16:23.948Z,12.08
2023-03-27T11:17:23.914Z,12.39
2023-03-27T11:18:25.790Z,13.40
2023-03-27T11:19:24.093Z,12.64
2023-03-27T11:20:26.261Z,11.38
2023-03-27T11:21:23.897Z,10.53
2023-03-27T11:22:24.035Z,9.97
2023-03-27T11:23:23.900Z,9.63
2023-03-27T11:24:23.900Z,9.10
2023-03-27T11:25:24.070Z,8.83
2023-03-27T11:26:23.285Z,8.66
2023-03-27T11:27:23.965Z,8.45
2023-03-27T11:28:23.977Z,8.50
2023-03-27T11:29:23.328Z,8.35
2023-03-27T11:30:23.359Z,8.44
2023-03-27T11:31:23.952Z,8.62
2023-03-27T11:32:23.429Z,8.88
2023-03-27T11:33:23.872Z,9.64
2023-03-27T11:34:28.889Z,9.82
2023-03-27T11:35:24.877Z,10.06
2023-03-27T11:36:23.855Z,10.73
2023-03-27T11:37:23.863Z,11.41
2023-03-27T11:38:23.588Z,11.86
2023-03-27T11:39:23.819Z,12.13
2023-03-27T11:40:24.516Z,11.67
2023-03-27T11:41:23.788Z,12.29
2023-03-27T11:42:23.782Z,12.82
2023-03-27T11:43:24.509Z,13.09
2023-03-27T11:44:24.474Z,13.06
2023-03-27T11:45:24.476Z,12.74
2023-03-27T11:46:24.541Z,11.77
2023-03-27T11:47:24.382Z,11.41
2023-03-27T11:48:24.453Z,11.10
2023-03-27T11:49:24.410Z,10.86
2023-03-27T11:50:24.347Z,10.44
2023-03-27T11:51:23.693Z,10.40
2023-03-27T11:52:24.321Z,10.26
2023-03-27T11:53:24.333Z,9.93
2023-03-27T11:54:22.890Z,9.56
2023-03-27T11:55:23.605Z,9.16
2023-03-27T11:56:23.626Z,8.91
2023-03-27T11:57:23.631Z,8.99
2023-03-27T11:58:24.240Z,9.13
2023-03-27T11:59:23.562Z,9.45
2023-03-27T12:00:23.546Z,9.71
2023-03-27T12:01:23.527Z,10.18
2023-03-27T12:02:23.016Z,9.97
2023-03-27T12:03:23.568Z,10.18
2023-03-27T12:04:24.180Z,11.06
2023-03-27T12:05:23.459Z,11.72
2023-03-27T12:06:24.120Z,12.09
2023-03-27T12:07:35.172Z,12.34
2023-03-27T12:08:25.901Z,12.21
2023-03-27T12:09:23.443Z,12.49
2023-03-27T12:10:28.421Z,11.85
2023-03-27T12:11:24.378Z,11.94
2023-03-27T12:12:23.375Z,11.83
2023-03-27T12:13:28.815Z,11.71
2023-03-27T12:14:30.991Z,11.62
2023-03-27T12:15:24.337Z,11.24
2023-03-27T12:16:23.333Z,11.19
2023-03-27T12:17:23.996Z,10.80
2023-03-27T12:18:32.323Z,10.37
2023-03-27T12:19:28.885Z,9.93
2023-03-27T12:20:24.253Z,9.68
2023-03-27T12:21:23.250Z,9.30
2023-03-27T12:22:24.339Z,8.87
2023-03-27T12:23:23.188Z,8.45
2023-03-27T12:24:23.208Z,8.04
2023-03-27T12:25:22.956Z,7.69
2023-03-27T12:26:22.948Z,7.53
2023-03-27T12:27:22.954Z,7.35
2023-03-27T12:28:23.661Z,7.17
2023-03-27T12:29:24.454Z,7.04
2023-03-27T12:30:23.143Z,6.97
2023-03-27T12:31:23.129Z,6.84
2023-03-27T12:32:23.798Z,6.77
2023-03-27T12:33:23.066Z,6.95
2023-03-27T12:34:22.950Z,7.02
2023-03-27T12:35:23.098Z,7.04
2023-03-27T12:36:23.039Z,7.37
2023-03-27T12:37:23.259Z,7.50
2023-03-27T12:38:22.983Z,7.37
2023-03-27T12:39:22.990Z,7.31
2023-03-27T12:40:22.986Z,7.22
2023-03-27T12:41:22.960Z,7.19
2023-03-27T12:42:22.949Z,7.15
2023-03-27T12:43:23.604Z,6.89
2023-03-27T12:44:22.907Z,6.91
2023-03-27T12:45:22.928Z,6.89
2023-03-27T12:46:23.045Z,7.13
2023-03-27T12:47:23.125Z,7.32
2023-03-27T12:48:23.082Z,7.24
2023-03-27T12:49:22.830Z,7.37
2023-03-27T12:50:22.237Z,7.44
2023-03-27T12:51:23.491Z,7.41
2023-03-27T12:52:22.812Z,7.49
2023-03-27T12:53:22.812Z,7.53
2023-03-27T12:54:22.755Z,7.79
2023-03-27T12:55:22.775Z,8.00
2023-03-27T12:56:22.775Z,8.25
2023-03-27T12:57:22.957Z,8.62
2023-03-27T12:58:22.790Z,8.81
2023-03-27T12:59:22.967Z,8.65
2023-03-27T13:00:22.942Z,8.57
2023-03-27T13:01:22.738Z,8.62
2023-03-27T13:02:22.698Z,8.72
2023-03-27T13:03:22.745Z,9.53
2023-03-27T13:04:22.629Z,10.04
2023-03-27T13:05:27.506Z,11.10
2023-03-27T13:06:23.617Z,12.39
2023-03-27T13:07:22.603Z,13.27
2023-03-27T13:08:22.587Z,13.98
2023-03-27T13:09:22.549Z,12.88
2023-03-27T13:10:22.569Z,11.97
2023-03-27T13:11:23.223Z,11.39
2023-03-27T13:12:22.573Z,10.92
2023-03-27T13:13:22.550Z,10.95
2023-03-27T13:14:21.779Z,10.74
2023-03-27T13:15:23.170Z,10.84
2023-03-27T13:16:22.511Z,10.63